PRIVATE WETTERSTATION BILLIGHEIM-ALLFELD                       ZURCK
Wetterdaten: Freitag, 07.10.2016
Datum Zeit Temp. A. Temp. A. min Temp. A. max Feuchte A. Luftdruck Regen Wind Richtung Richtung Sonnenschein ET Solar Taupunkt Windchill Windben Empfang
07.10.2016 00:00 8,1 C 8,1 C 8,1 C 91 % 1017,9 hPa 0,0 l/m 0,0 km/h (0 Bft) N 0 0 min 0,000 mm 0 W/m 6,7 C 8,1 C 0,0 km/h (0 Bft) 100 %
07.10.2016 00:10 8,1 C 8,1 C 8,1 C 91 % 1017,8 hPa 0,0 l/m 0,0 km/h (0 Bft) N 0 0 min 0,000 mm 0 W/m 6,7 C 8,1 C 0,0 km/h (0 Bft) 100 %
07.10.2016 00:20 8,1 C 8,1 C 8,1 C 91 % 1017,7 hPa 0,0 l/m 0,0 km/h (0 Bft) N 0 0 min 0,000 mm 0 W/m 6,7 C 8,1 C 0,0 km/h (0 Bft) 100 %
07.10.2016 00:30 8,1 C 8,1 C 8,1 C 91 % 1017,8 hPa 0,0 l/m 0,0 km/h (0 Bft) N 0 0 min 0,000 mm 0 W/m 6,7 C 8,1 C 0,0 km/h (0 Bft) 100 %
07.10.2016 00:40 8,1 C 8,1 C 8,1 C 91 % 1017,7 hPa 0,0 l/m 0,0 km/h (0 Bft) N 0 0 min 0,000 mm 0 W/m 6,7 C 8,1 C 0,0 km/h (0 Bft) 100 %
07.10.2016 00:50 8,1 C 8,1 C 8,1 C 91 % 1017,7 hPa 0,0 l/m 0,0 km/h (0 Bft) N 0 0 min 0,000 mm 0 W/m 6,7 C 8,1 C 0,0 km/h (0 Bft) 100 %
07.10.2016 01:00 8,1 C 8,1 C 8,1 C 91 % 1017,7 hPa 0,0 l/m 0,0 km/h (0 Bft) N 0 0 min 0,000 mm 0 W/m 6,7 C 8,1 C 0,0 km/h (0 Bft) 98 %
07.10.2016 01:10 8,1 C 8,1 C 8,1 C 91 % 1017,6 hPa 0,0 l/m 0,0 km/h (0 Bft) N 0 0 min 0,000 mm 0 W/m 6,7 C 8,1 C 0,0 km/h (0 Bft) 99 %
07.10.2016 01:20 8,1 C 8,1 C 8,1 C 91 % 1017,5 hPa 0,0 l/m 0,0 km/h (0 Bft) N 0 0 min 0,000 mm 0 W/m 6,7 C 8,1 C 0,0 km/h (0 Bft) 99 %
07.10.2016 01:30 8,2 C 8,1 C 8,2 C 91 % 1017,5 hPa 0,0 l/m 0,0 km/h (0 Bft) N 0 0 min 0,000 mm 0 W/m 6,8 C 8,2 C 0,0 km/h (0 Bft) 98 %
07.10.2016 01:40 8,3 C 8,2 C 8,3 C 91 % 1017,5 hPa 0,0 l/m 0,0 km/h (0 Bft) N 0 0 min 0,000 mm 0 W/m 6,9 C 8,3 C 0,0 km/h (0 Bft) 98 %
07.10.2016 01:50 8,4 C 8,3 C 8,4 C 91 % 1017,5 hPa 0,0 l/m 0,0 km/h (0 Bft) N 0 0 min 0,000 mm 0 W/m 7,0 C 8,4 C 0,0 km/h (0 Bft) 98 %
07.10.2016 02:00 8,5 C 8,4 C 8,5 C 91 % 1017,4 hPa 0,0 l/m 0,0 km/h (0 Bft) N 0 0 min 0,000 mm 0 W/m 7,1 C 8,5 C 0,0 km/h (0 Bft) 98 %
07.10.2016 02:10 8,5 C 8,5 C 8,5 C 91 % 1017,3 hPa 0,0 l/m 0,0 km/h (0 Bft) N 0 0 min 0,000 mm 0 W/m 7,1 C 8,5 C 0,0 km/h (0 Bft) 97 %
07.10.2016 02:20 8,6 C 8,5 C 8,6 C 91 % 1017,3 hPa 0,0 l/m 0,0 km/h (0 Bft) N 0 0 min 0,000 mm 0 W/m 7,2 C 8,6 C 0,0 km/h (0 Bft) 97 %
07.10.2016 02:30 8,6 C 8,6 C 8,6 C 91 % 1017,2 hPa 0,0 l/m 0,0 km/h (0 Bft) N 0 0 min 0,000 mm 0 W/m 7,2 C 8,6 C 0,0 km/h (0 Bft) 97 %
07.10.2016 02:40 8,6 C 8,6 C 8,6 C 91 % 1017,2 hPa 0,0 l/m 0,0 km/h (0 Bft) N 0 0 min 0,000 mm 0 W/m 7,2 C 8,6 C 0,0 km/h (0 Bft) 98 %
07.10.2016 02:50 8,5 C 8,5 C 8,6 C 91 % 1017,2 hPa 0,0 l/m 0,0 km/h (0 Bft) N 0 0 min 0,000 mm 0 W/m 7,1 C 8,5 C 0,0 km/h (0 Bft) 88 %
07.10.2016 03:00 8,5 C 8,5 C 8,5 C 91 % 1017,1 hPa 0,0 l/m 0,0 km/h (0 Bft) N 0 0 min 0,000 mm 0 W/m 7,1 C 8,5 C 0,0 km/h (0 Bft) 97 %
07.10.2016 03:10 8,4 C 8,4 C 8,5 C 91 % 1017,0 hPa 0,0 l/m 0,0 km/h (0 Bft) N 0 0 min 0,000 mm 0 W/m 7,0 C 8,4 C 0,0 km/h (0 Bft) 98 %
07.10.2016 03:20 8,4 C 8,4 C 8,4 C 91 % 1017,0 hPa 0,0 l/m 0,0 km/h (0 Bft) N 0 0 min 0,000 mm 0 W/m 7,0 C 8,4 C 0,0 km/h (0 Bft) 97 %
07.10.2016 03:30 8,3 C 8,3 C 8,4 C 91 % 1016,9 hPa 0,0 l/m 0,0 km/h (0 Bft) N 0 0 min 0,000 mm 0 W/m 6,9 C 8,3 C 0,0 km/h (0 Bft) 98 %
07.10.2016 03:40 8,2 C 8,2 C 8,3 C 91 % 1016,8 hPa 0,0 l/m 0,0 km/h (0 Bft) N 0 0 min 0,000 mm 0 W/m 6,8 C 8,2 C 0,0 km/h (0 Bft) 97 %
07.10.2016 03:50 8,1 C 8,1 C 8,2 C 91 % 1016,8 hPa 0,0 l/m 0,0 km/h (0 Bft) N 0 0 min 0,000 mm 0 W/m 6,7 C 8,1 C 0,0 km/h (0 Bft) 98 %
07.10.2016 04:00 8,1 C 8,1 C 8,1 C 91 % 1016,8 hPa 0,0 l/m 0,0 km/h (0 Bft) N 0 0 min 0,000 mm 0 W/m 6,7 C 8,1 C 0,0 km/h (0 Bft) 98 %
07.10.2016 04:10 8,1 C 8,1 C 8,1 C 91 % 1016,8 hPa 0,0 l/m 0,0 km/h (0 Bft) N-NW 337 0 min 0,000 mm 0 W/m 6,7 C 8,1 C 3,2 km/h (1 Bft) 98 %
07.10.2016 04:20 8,2 C 8,1 C 8,2 C 91 % 1016,9 hPa 0,0 l/m 0,0 km/h (0 Bft) N 0 0 min 0,000 mm 0 W/m 6,8 C 8,2 C 0,0 km/h (0 Bft) 97 %
07.10.2016 04:30 8,3 C 8,2 C 8,3 C 91 % 1016,8 hPa 0,0 l/m 0,0 km/h (0 Bft) N 360 0 min 0,000 mm 0 W/m 6,9 C 8,3 C 4,8 km/h (1 Bft) 97 %
07.10.2016 04:40 8,4 C 8,3 C 8,4 C 91 % 1016,9 hPa 0,0 l/m 0,0 km/h (0 Bft) N 0 0 min 0,000 mm 0 W/m 7,0 C 8,4 C 0,0 km/h (0 Bft) 98 %
07.10.2016 04:50 8,4 C 8,4 C 8,4 C 91 % 1016,9 hPa 0,0 l/m 0,0 km/h (0 Bft) N 0 0 min 0,000 mm 0 W/m 7,0 C 8,4 C 0,0 km/h (0 Bft) 96 %
07.10.2016 05:00 8,4 C 8,4 C 8,4 C 91 % 1017,0 hPa 0,0 l/m 0,0 km/h (0 Bft) N 0 0 min 0,000 mm 0 W/m 7,0 C 8,4 C 0,0 km/h (0 Bft) 98 %
07.10.2016 05:10 8,4 C 8,4 C 8,4 C 91 % 1016,9 hPa 0,0 l/m 0,0 km/h (0 Bft) N 0 0 min 0,000 mm 0 W/m 7,0 C 8,4 C 0,0 km/h (0 Bft) 97 %
07.10.2016 05:20 8,4 C 8,4 C 8,4 C 91 % 1017,0 hPa 0,0 l/m 0,0 km/h (0 Bft) N 0 0 min 0,000 mm 0 W/m 7,0 C 8,4 C 0,0 km/h (0 Bft) 97 %
07.10.2016 05:30 8,4 C 8,4 C 8,4 C 91 % 1017,1 hPa 0,0 l/m 0,0 km/h (0 Bft) N 0 0 min 0,000 mm 0 W/m 7,0 C 8,4 C 0,0 km/h (0 Bft) 88 %
07.10.2016 05:40 8,4 C 8,4 C 8,5 C 91 % 1017,1 hPa 0,0 l/m 0,0 km/h (0 Bft) N 0 0 min 0,000 mm 0 W/m 7,0 C 8,4 C 0,0 km/h (0 Bft) 97 %
07.10.2016 05:50 8,4 C 8,4 C 8,5 C 91 % 1017,1 hPa 0,0 l/m 0,0 km/h (0 Bft) N 0 0 min 0,000 mm 0 W/m 7,0 C 8,4 C 0,0 km/h (0 Bft) 98 %
07.10.2016 06:00 8,3 C 8,3 C 8,4 C 91 % 1017,0 hPa 0,0 l/m 0,0 km/h (0 Bft) N 0 0 min 0,000 mm 0 W/m 6,9 C 8,3 C 0,0 km/h (0 Bft) 97 %
07.10.2016 06:10 8,2 C 8,2 C 8,3 C 91 % 1017,0 hPa 0,0 l/m 0,0 km/h (0 Bft) N 0 0 min 0,000 mm 0 W/m 6,8 C 8,2 C 0,0 km/h (0 Bft) 98 %
07.10.2016 06:20 8,1 C 8,1 C 8,2 C 91 % 1017,0 hPa 0,0 l/m 0,0 km/h (0 Bft) N 0 0 min 0,000 mm 0 W/m 6,7 C 8,1 C 0,0 km/h (0 Bft) 98 %
07.10.2016 06:30 7,9 C 7,9 C 8,1 C 91 % 1016,9 hPa 0,0 l/m 0,0 km/h (0 Bft) N 0 0 min 0,000 mm 0 W/m 6,5 C 7,9 C 0,0 km/h (0 Bft) 97 %
07.10.2016 06:40 7,8 C 7,8 C 7,9 C 91 % 1016,9 hPa 0,0 l/m 0,0 km/h (0 Bft) N 0 0 min 0,000 mm 0 W/m 6,4 C 7,8 C 0,0 km/h (0 Bft) 98 %
07.10.2016 06:50 7,8 C 7,8 C 7,8 C 91 % 1016,9 hPa 0,0 l/m 0,0 km/h (0 Bft) N 0 0 min 0,000 mm 0 W/m 6,4 C 7,8 C 0,0 km/h (0 Bft) 97 %
07.10.2016 07:00 7,6 C 7,6 C 7,8 C 91 % 1017,0 hPa 0,0 l/m 0,0 km/h (0 Bft) N 0 0 min 0,000 mm 0 W/m 6,2 C 7,6 C 0,0 km/h (0 Bft) 98 %
07.10.2016 07:10 7,4 C 7,4 C 7,6 C 91 % 1017,1 hPa 0,0 l/m 0,0 km/h (0 Bft) N 0 0 min 0,000 mm 0 W/m 6,0 C 7,4 C 0,0 km/h (0 Bft) 97 %
07.10.2016 07:20 7,2 C 7,2 C 7,4 C 91 % 1017,1 hPa 0,0 l/m 0,0 km/h (0 Bft) N 0 0 min 0,000 mm 0 W/m 5,8 C 7,2 C 0,0 km/h (0 Bft) 98 %
07.10.2016 07:30 7,1 C 7,1 C 7,2 C 91 % 1017,2 hPa 0,0 l/m 0,0 km/h (0 Bft) N 0 0 min 0,000 mm 0 W/m 5,7 C 7,1 C 0,0 km/h (0 Bft) 98 %
07.10.2016 07:40 7,1 C 7,1 C 7,1 C 91 % 1017,3 hPa 0,0 l/m 0,0 km/h (0 Bft) N 0 0 min 0,000 mm 7 W/m 5,7 C 7,1 C 0,0 km/h (0 Bft) 97 %
07.10.2016 07:50 7,1 C 7,0 C 7,1 C 91 % 1017,4 hPa 0,0 l/m 0,0 km/h (0 Bft) N 0 0 min 0,000 mm 16 W/m 5,7 C 7,1 C 0,0 km/h (0 Bft) 98 %
07.10.2016 08:00 7,1 C 7,1 C 7,1 C 91 % 1017,4 hPa 0,0 l/m 0,0 km/h (0 Bft) N 0 0 min 0,000 mm 21 W/m 5,7 C 7,1 C 0,0 km/h (0 Bft) 97 %
07.10.2016 08:10 7,3 C 7,1 C 7,3 C 91 % 1017,4 hPa 0,0 l/m 0,0 km/h (0 Bft) N 0 0 min 0,000 mm 21 W/m 5,9 C 7,3 C 0,0 km/h (0 Bft) 98 %
07.10.2016 08:20 7,4 C 7,3 C 7,4 C 91 % 1017,4 hPa 0,0 l/m 0,0 km/h (0 Bft) N 0 0 min 0,000 mm 19 W/m 6,0 C 7,4 C 0,0 km/h (0 Bft) 97 %
07.10.2016 08:30 7,6 C 7,4 C 7,6 C 91 % 1017,4 hPa 0,0 l/m 0,0 km/h (0 Bft) N 0 0 min 0,000 mm 44 W/m 6,2 C 7,6 C 0,0 km/h (0 Bft) 98 %
07.10.2016 08:40 7,8 C 7,6 C 7,8 C 91 % 1017,4 hPa 0,0 l/m 0,0 km/h (0 Bft) N 0 0 min 0,000 mm 51 W/m 6,4 C 7,8 C 0,0 km/h (0 Bft) 96 %
07.10.2016 08:50 7,8 C 7,8 C 7,8 C 91 % 1017,4 hPa 0,0 l/m 0,0 km/h (0 Bft) N 0 0 min 0,000 mm 40 W/m 6,4 C 7,8 C 0,0 km/h (0 Bft) 96 %
07.10.2016 09:00 8,1 C 7,8 C 8,1 C 91 % 1017,5 hPa 0,0 l/m 0,0 km/h (0 Bft) N 0 0 min 0,025 mm 120 W/m 6,7 C 8,1 C 0,0 km/h (0 Bft) 98 %
07.10.2016 09:10 8,5 C 8,1 C 8,5 C 91 % 1017,5 hPa 0,0 l/m 0,0 km/h (0 Bft) N 360 10 min 0,000 mm 181 W/m 7,1 C 8,5 C 3,2 km/h (1 Bft) 97 %
07.10.2016 09:20 8,8 C 8,5 C 8,8 C 91 % 1017,4 hPa 0,0 l/m 0,0 km/h (0 Bft) N 360 10 min 0,000 mm 172 W/m 7,4 C 8,8 C 4,8 km/h (1 Bft) 98 %
07.10.2016 09:30 8,9 C 8,8 C 8,9 C 91 % 1017,4 hPa 0,0 l/m 0,0 km/h (0 Bft) N 360 0 min 0,000 mm 95 W/m 7,5 C 8,9 C 1,6 km/h (1 Bft) 97 %
07.10.2016 09:40 9,1 C 8,9 C 9,1 C 91 % 1017,5 hPa 0,0 l/m 0,0 km/h (0 Bft) N 0 0 min 0,000 mm 97 W/m 7,7 C 9,1 C 0,0 km/h (0 Bft) 97 %
07.10.2016 09:50 9,3 C 9,1 C 9,3 C 91 % 1017,5 hPa 0,0 l/m 0,0 km/h (0 Bft) N 0 0 min 0,000 mm 109 W/m 7,9 C 9,3 C 0,0 km/h (0 Bft) 97 %
07.10.2016 10:00 9,4 C 9,3 C 9,4 C 91 % 1017,5 hPa 0,0 l/m 0,0 km/h (0 Bft) N 360 0 min 0,051 mm 104 W/m 8,0 C 9,4 C 1,6 km/h (1 Bft) 97 %
07.10.2016 10:10 9,6 C 9,4 C 9,6 C 91 % 1017,5 hPa 0,0 l/m 0,0 km/h (0 Bft) N 360 0 min 0,000 mm 127 W/m 8,2 C 9,6 C 3,2 km/h (1 Bft) 98 %
07.10.2016 10:20 9,8 C 9,6 C 9,8 C 91 % 1017,6 hPa 0,0 l/m 0,0 km/h (0 Bft) O-SO 112 10 min 0,000 mm 186 W/m 8,4 C 9,8 C 4,8 km/h (1 Bft) 97 %
07.10.2016 10:30 10,2 C 9,8 C 10,2 C 91 % 1017,6 hPa 0,0 l/m 0,0 km/h (0 Bft) N 0 10 min 0,000 mm 190 W/m 8,8 C 10,2 C 0,0 km/h (0 Bft) 98 %
07.10.2016 10:40 10,6 C 10,2 C 10,6 C 90 % 1017,5 hPa 0,0 l/m 0,0 km/h (0 Bft) SO 135 10 min 0,000 mm 403 W/m 9,0 C 10,6 C 1,6 km/h (1 Bft) 97 %
07.10.2016 10:50 10,9 C 10,6 C 10,9 C 90 % 1017,6 hPa 0,0 l/m 0,0 km/h (0 Bft) N 0 10 min 0,000 mm 255 W/m 9,3 C 10,9 C 0,0 km/h (0 Bft) 98 %
07.10.2016 11:00 11,0 C 10,9 C 11,0 C 89 % 1017,6 hPa 0,0 l/m 1,6 km/h (1 Bft) SO 135 10 min 0,076 mm 211 W/m 9,3 C 11,0 C 4,8 km/h (1 Bft) 97 %
07.10.2016 11:10 11,1 C 10,9 C 11,1 C 88 % 1017,6 hPa 0,0 l/m 0,0 km/h (0 Bft) NW 315 10 min 0,000 mm 239 W/m 9,2 C 11,1 C 3,2 km/h (1 Bft) 88 %
07.10.2016 11:20 11,1 C 11,0 C 11,1 C 87 % 1017,6 hPa 0,0 l/m 0,0 km/h (0 Bft) NW 315 10 min 0,000 mm 197 W/m 9,0 C 11,1 C 4,8 km/h (1 Bft) 98 %
07.10.2016 11:30 11,2 C 11,1 C 11,2 C 86 % 1017,6 hPa 0,0 l/m 0,0 km/h (0 Bft) O-SO 112 10 min 0,000 mm 357 W/m 8,9 C 11,2 C 3,2 km/h (1 Bft) 97 %
07.10.2016 11:40 11,4 C 11,2 C 11,4 C 85 % 1017,6 hPa 0,0 l/m 0,0 km/h (0 Bft) O-SO 112 10 min 0,000 mm 352 W/m 9,0 C 11,4 C 6,4 km/h (2 Bft) 98 %
07.10.2016 11:50 11,5 C 11,4 C 11,5 C 84 % 1017,6 hPa 0,0 l/m 0,0 km/h (0 Bft) O-SO 112 0 min 0,000 mm 146 W/m 8,9 C 11,5 C 3,2 km/h (1 Bft) 97 %
07.10.2016 12:00 11,4 C 11,4 C 11,5 C 84 % 1017,6 hPa 0,0 l/m 0,0 km/h (0 Bft) W-SW 247 0 min 0,076 mm 77 W/m 8,8 C 11,4 C 4,8 km/h (1 Bft) 97 %
07.10.2016 12:10 11,2 C 11,2 C 11,4 C 84 % 1017,7 hPa 0,0 l/m 0,0 km/h (0 Bft) N 0 0 min 0,000 mm 84 W/m 8,6 C 11,2 C 0,0 km/h (0 Bft) 98 %
07.10.2016 12:20 11,2 C 11,2 C 11,2 C 85 % 1017,7 hPa 0,0 l/m 0,0 km/h (0 Bft) W-NW 292 0 min 0,000 mm 114 W/m 8,8 C 11,2 C 3,2 km/h (1 Bft) 97 %
07.10.2016 12:30 11,1 C 11,1 C 11,2 C 85 % 1017,8 hPa 0,0 l/m 0,0 km/h (0 Bft) N-NO 22 0 min 0,000 mm 107 W/m 8,7 C 11,1 C 6,4 km/h (2 Bft) 98 %
07.10.2016 12:40 10,9 C 10,9 C 11,1 C 86 % 1017,9 hPa 0,0 l/m 0,0 km/h (0 Bft) O-NO 67 0 min 0,000 mm 105 W/m 8,7 C 10,9 C 6,4 km/h (2 Bft) 97 %
07.10.2016 12:50 10,6 C 10,6 C 10,9 C 88 % 1018,0 hPa 0,0 l/m 1,6 km/h (1 Bft) S-SW 202 0 min 0,000 mm 95 W/m 8,7 C 10,6 C 8,0 km/h (2 Bft) 98 %
07.10.2016 13:00 10,2 C 10,2 C 10,6 C 89 % 1017,9 hPa 0,0 l/m 0,0 km/h (0 Bft) NW 315 0 min 0,051 mm 128 W/m 8,5 C 10,2 C 4,8 km/h (1 Bft) 97 %
07.10.2016 13:10 10,3 C 10,2 C 10,3 C 89 % 1017,9 hPa 0,0 l/m 0,0 km/h (0 Bft) N 0 10 min 0,000 mm 216 W/m 8,6 C 10,3 C 0,0 km/h (0 Bft) 98 %
07.10.2016 13:20 10,6 C 10,3 C 10,6 C 90 % 1017,9 hPa 0,0 l/m 1,6 km/h (1 Bft) W-NW 292 10 min 0,000 mm 480 W/m 9,0 C 10,6 C 6,4 km/h (2 Bft) 98 %
07.10.2016 13:30 11,1 C 10,6 C 11,1 C 87 % 1017,9 hPa 0,0 l/m 1,6 km/h (1 Bft) NW 315 10 min 0,000 mm 394 W/m 9,0 C 11,1 C 8,0 km/h (2 Bft) 98 %
07.10.2016 13:40 11,1 C 11,1 C 11,2 C 85 % 1017,9 hPa 0,0 l/m 0,0 km/h (0 Bft) S-SO 157 0 min 0,000 mm 144 W/m 8,7 C 11,1 C 6,4 km/h (2 Bft) 98 %
07.10.2016 13:50 11,1 C 11,1 C 11,2 C 85 % 1017,9 hPa 0,0 l/m 0,0 km/h (0 Bft) NW 315 0 min 0,000 mm 77 W/m 8,7 C 11,1 C 4,8 km/h (1 Bft) 97 %
07.10.2016 14:00 11,1 C 11,1 C 11,1 C 85 % 1017,8 hPa 0,0 l/m 0,0 km/h (0 Bft) NW 315 0 min 0,076 mm 83 W/m 8,7 C 11,1 C 1,6 km/h (1 Bft) 98 %
07.10.2016 14:10 11,1 C 11,0 C 11,1 C 86 % 1017,8 hPa 0,0 l/m 0,0 km/h (0 Bft) N 0 0 min 0,000 mm 105 W/m 8,8 C 11,1 C 0,0 km/h (0 Bft) 97 %
07.10.2016 14:20 11,1 C 11,1 C 11,1 C 85 % 1017,8 hPa 0,0 l/m 0,0 km/h (0 Bft) O 90 0 min 0,000 mm 137 W/m 8,7 C 11,1 C 4,8 km/h (1 Bft) 98 %
07.10.2016 14:30 11,1 C 11,1 C 11,1 C 82 % 1017,7 hPa 0,0 l/m 1,6 km/h (1 Bft) N-NO 22 10 min 0,000 mm 183 W/m 8,1 C 11,1 C 6,4 km/h (2 Bft) 97 %
07.10.2016 14:40 11,3 C 11,1 C 11,3 C 82 % 1017,7 hPa 0,0 l/m 1,6 km/h (1 Bft) SO 135 10 min 0,000 mm 204 W/m 8,3 C 11,3 C 6,4 km/h (2 Bft) 98 %
07.10.2016 14:50 11,4 C 11,3 C 11,4 C 81 % 1017,7 hPa 0,0 l/m 1,6 km/h (1 Bft) O-SO 112 10 min 0,000 mm 174 W/m 8,3 C 11,4 C 8,0 km/h (2 Bft) 98 %
07.10.2016 15:00 11,5 C 11,4 C 11,5 C 80 % 1017,7 hPa 0,0 l/m 1,6 km/h (1 Bft) O 90 0 min 0,076 mm 149 W/m 8,2 C 11,5 C 8,0 km/h (2 Bft) 97 %
07.10.2016 15:10 11,5 C 11,4 C 11,5 C 81 % 1017,6 hPa 0,0 l/m 0,0 km/h (0 Bft) N-NO 22 10 min 0,000 mm 461 W/m 8,4 C 11,5 C 4,8 km/h (1 Bft) 98 %
07.10.2016 15:20 11,9 C 11,5 C 11,9 C 79 % 1017,7 hPa 0,0 l/m 1,6 km/h (1 Bft) NW 315 10 min 0,000 mm 360 W/m 8,4 C 11,9 C 9,7 km/h (2 Bft) 97 %
07.10.2016 15:30 12,7 C 11,9 C 12,7 C 77 % 1017,7 hPa 0,0 l/m 0,0 km/h (0 Bft) N 360 10 min 0,000 mm 309 W/m 8,8 C 12,7 C 6,4 km/h (2 Bft) 98 %
07.10.2016 15:40 12,6 C 12,6 C 12,7 C 73 % 1017,7 hPa 0,0 l/m 1,6 km/h (1 Bft) N-NW 337 0 min 0,000 mm 114 W/m 7,9 C 12,6 C 11,3 km/h (2 Bft) 98 %
07.10.2016 15:50 12,2 C 12,2 C 12,6 C 75 % 1017,8 hPa 0,0 l/m 0,0 km/h (0 Bft) S 180 0 min 0,000 mm 46 W/m 7,9 C 12,2 C 4,8 km/h (1 Bft) 98 %
07.10.2016 16:00 11,9 C 11,9 C 12,2 C 75 % 1017,8 hPa 0,0 l/m 0,0 km/h (0 Bft) W-NW 292 0 min 0,076 mm 77 W/m 7,6 C 11,9 C 4,8 km/h (1 Bft) 88 %
07.10.2016 16:10 11,8 C 11,8 C 11,9 C 76 % 1017,9 hPa 0,0 l/m 0,0 km/h (0 Bft) N 0 0 min 0,000 mm 93 W/m 7,7 C 11,8 C 0,0 km/h (0 Bft) 97 %
07.10.2016 16:20 11,8 C 11,7 C 11,8 C 77 % 1017,9 hPa 0,0 l/m 0,0 km/h (0 Bft) N 0 0 min 0,000 mm 97 W/m 7,9 C 11,8 C 0,0 km/h (0 Bft) 98 %
07.10.2016 16:30 11,8 C 11,7 C 11,8 C 77 % 1017,9 hPa 0,0 l/m 0,0 km/h (0 Bft) NW 315 0 min 0,000 mm 90 W/m 7,9 C 11,8 C 1,6 km/h (1 Bft) 97 %
07.10.2016 16:40 11,7 C 11,7 C 11,8 C 77 % 1017,9 hPa 0,0 l/m 0,0 km/h (0 Bft) N 0 0 min 0,000 mm 81 W/m 7,8 C 11,7 C 0,0 km/h (0 Bft) 97 %
07.10.2016 16:50 11,7 C 11,7 C 11,7 C 77 % 1017,9 hPa 0,0 l/m 0,0 km/h (0 Bft) N 0 0 min 0,000 mm 65 W/m 7,8 C 11,7 C 0,0 km/h (0 Bft) 100 %
07.10.2016 17:00 11,7 C 11,7 C 11,7 C 77 % 1017,9 hPa 0,0 l/m 0,0 km/h (0 Bft) N 0 0 min 0,051 mm 69 W/m 7,8 C 11,7 C 0,0 km/h (0 Bft) 100 %
07.10.2016 17:10 11,6 C 11,6 C 11,7 C 76 % 1017,9 hPa 0,0 l/m 0,0 km/h (0 Bft) S-SO 157 0 min 0,000 mm 49 W/m 7,5 C 11,6 C 6,4 km/h (2 Bft) 100 %
07.10.2016 17:20 11,4 C 11,4 C 11,7 C 76 % 1017,9 hPa 0,0 l/m 0,0 km/h (0 Bft) O-SO 116 0 min 0,001 mm 28 W/m 7,3 C 11,4 C 0,0 km/h (0 Bft) 98 %
07.10.2016 17:30 11,2 C 11,2 C 11,4 C 77 % 1017,9 hPa 0,0 l/m 0,0 km/h (0 Bft) O-SO 112 0 min 0,000 mm 32 W/m 7,3 C 11,2 C 0,0 km/h (0 Bft) 98 %
07.10.2016 17:40 11,1 C 11,1 C 11,3 C 79 % 1018,0 hPa 0,0 l/m 0,0 km/h (0 Bft) O-SO 116 0 min 0,000 mm 26 W/m 7,6 C 11,1 C 0,0 km/h (0 Bft) 97 %
07.10.2016 17:50 11,0 C 11,0 C 11,1 C 78 % 1018,1 hPa 0,0 l/m 0,0 km/h (0 Bft) O-SO 116 0 min 0,000 mm 23 W/m 7,3 C 11,0 C 0,0 km/h (0 Bft) 97 %
07.10.2016 18:00 10,8 C 10,8 C 11,0 C 78 % 1018,1 hPa 0,0 l/m 0,0 km/h (0 Bft) O-SO 105 0 min 0,025 mm 18 W/m 7,1 C 10,8 C 0,0 km/h (0 Bft) 94 %
07.10.2016 18:10 10,8 C 10,8 C 10,8 C 79 % 1018,2 hPa 0,0 l/m 0,1 km/h (0 Bft) O 99 0 min 0,000 mm 12 W/m 7,3 C 10,8 C 3,2 km/h (1 Bft) 93 %
07.10.2016 18:20 10,6 C 10,6 C 10,8 C 79 % 1018,3 hPa 0,0 l/m 0,0 km/h (0 Bft) O 99 0 min 0,000 mm 12 W/m 7,1 C 10,6 C 0,0 km/h (0 Bft) 98 %
07.10.2016 18:30 10,5 C 10,5 C 10,6 C 80 % 1018,2 hPa 0,0 l/m 0,0 km/h (0 Bft) O 99 0 min 0,000 mm 7 W/m 7,2 C 10,5 C 0,0 km/h (0 Bft) 97 %
07.10.2016 18:40 10,4 C 10,4 C 10,5 C 81 % 1018,2 hPa 0,0 l/m 0,0 km/h (0 Bft) O 99 0 min 0,000 mm 0 W/m 7,3 C 10,4 C 0,0 km/h (0 Bft) 97 %
07.10.2016 18:50 10,3 C 10,3 C 10,4 C 82 % 1018,3 hPa 0,0 l/m 0,0 km/h (0 Bft) O 98 0 min 0,000 mm 0 W/m 7,4 C 10,3 C 1,6 km/h (1 Bft) 98 %
07.10.2016 19:00 10,1 C 10,1 C 10,3 C 81 % 1018,3 hPa 0,0 l/m 0,0 km/h (0 Bft) O 99 0 min 0,000 mm 0 W/m 7,0 C 10,1 C 0,0 km/h (0 Bft) 97 %
07.10.2016 19:10 10,0 C 10,0 C 10,1 C 82 % 1018,2 hPa 0,0 l/m 0,0 km/h (0 Bft) O 99 0 min 0,000 mm 0 W/m 7,1 C 10,0 C 0,0 km/h (0 Bft) 98 %
07.10.2016 19:20 9,9 C 9,9 C 10,0 C 83 % 1018,1 hPa 0,0 l/m 0,1 km/h (0 Bft) O-SO 122 0 min 0,000 mm 0 W/m 7,2 C 9,9 C 4,8 km/h (1 Bft) 97 %
07.10.2016 19:30 9,7 C 9,7 C 9,9 C 83 % 1018,2 hPa 0,0 l/m 3,6 km/h (1 Bft) SO 133 0 min 0,000 mm 0 W/m 7,0 C 9,7 C 9,7 km/h (2 Bft) 97 %
07.10.2016 19:40 9,7 C 9,7 C 9,7 C 84 % 1018,2 hPa 0,0 l/m 1,7 km/h (1 Bft) O-SO 105 0 min 0,000 mm 0 W/m 7,1 C 9,7 C 9,7 km/h (2 Bft) 97 %
07.10.2016 19:50 9,7 C 9,7 C 9,7 C 84 % 1018,3 hPa 0,0 l/m 0,5 km/h (0 Bft) N-NO 33 0 min 0,000 mm 0 W/m 7,1 C 9,7 C 4,8 km/h (1 Bft) 96 %
07.10.2016 20:00 9,6 C 9,6 C 9,7 C 85 % 1018,4 hPa 0,0 l/m 0,0 km/h (0 Bft) N-NO 33 0 min 0,000 mm 0 W/m 7,2 C 9,6 C 0,0 km/h (0 Bft) 97 %
07.10.2016 20:10 9,6 C 9,6 C 9,6 C 85 % 1018,3 hPa 0,0 l/m 0,0 km/h (0 Bft) N-NO 33 0 min 0,000 mm 0 W/m 7,2 C 9,6 C 0,0 km/h (0 Bft) 97 %
07.10.2016 20:20 9,4 C 9,4 C 9,6 C 85 % 1018,3 hPa 0,0 l/m 0,0 km/h (0 Bft) N-NO 33 0 min 0,000 mm 0 W/m 7,0 C 9,4 C 0,0 km/h (0 Bft) 97 %
07.10.2016 20:30 9,4 C 9,4 C 9,4 C 86 % 1018,3 hPa 0,0 l/m 0,0 km/h (0 Bft) N-NO 33 0 min 0,000 mm 0 W/m 7,2 C 9,4 C 0,0 km/h (0 Bft) 97 %
07.10.2016 20:40 9,3 C 9,3 C 9,4 C 86 % 1018,4 hPa 0,0 l/m 0,0 km/h (0 Bft) N-NO 33 0 min 0,000 mm 0 W/m 7,1 C 9,3 C 0,0 km/h (0 Bft) 98 %
07.10.2016 20:50 9,2 C 9,2 C 9,3 C 86 % 1018,5 hPa 0,0 l/m 0,0 km/h (0 Bft) N-NO 33 0 min 0,000 mm 0 W/m 7,0 C 9,2 C 0,0 km/h (0 Bft) 97 %
07.10.2016 21:00 9,1 C 9,1 C 9,2 C 86 % 1018,4 hPa 0,0 l/m 0,0 km/h (0 Bft) N-NO 33 0 min 0,000 mm 0 W/m 6,9 C 9,1 C 0,0 km/h (0 Bft) 98 %
07.10.2016 21:10 8,8 C 8,8 C 9,1 C 86 % 1018,5 hPa 0,0 l/m 0,0 km/h (0 Bft) N 0 0 min 0,000 mm 0 W/m 6,6 C 8,8 C 0,0 km/h (0 Bft) 99 %
07.10.2016 21:20 8,6 C 8,6 C 8,8 C 86 % 1018,5 hPa 0,0 l/m 0,0 km/h (0 Bft) N 0 0 min 0,000 mm 0 W/m 6,4 C 8,6 C 0,0 km/h (0 Bft) 100 %
07.10.2016 21:30 8,3 C 8,3 C 8,6 C 87 % 1018,5 hPa 0,0 l/m 0,0 km/h (0 Bft) N 0 0 min 0,000 mm 0 W/m 6,3 C 8,3 C 0,0 km/h (0 Bft) 100 %
07.10.2016 21:40 8,1 C 8,1 C 8,3 C 88 % 1018,4 hPa 0,0 l/m 0,0 km/h (0 Bft) N 0 0 min 0,000 mm 0 W/m 6,2 C 8,1 C 0,0 km/h (0 Bft) 100 %
07.10.2016 21:50 7,9 C 7,9 C 8,1 C 88 % 1018,4 hPa 0,0 l/m 0,0 km/h (0 Bft) N 0 0 min 0,000 mm 0 W/m 6,0 C 7,9 C 0,0 km/h (0 Bft) 100 %
07.10.2016 22:00 7,7 C 7,7 C 7,9 C 88 % 1018,6 hPa 0,0 l/m 0,0 km/h (0 Bft) N 0 0 min 0,000 mm 0 W/m 5,8 C 7,7 C 0,0 km/h (0 Bft) 100 %
07.10.2016 22:10 7,6 C 7,6 C 7,7 C 89 % 1018,8 hPa 0,0 l/m 0,0 km/h (0 Bft) N 0 0 min 0,000 mm 0 W/m 5,9 C 7,6 C 0,0 km/h (0 Bft) 100 %
07.10.2016 22:20 7,5 C 7,5 C 7,6 C 89 % 1018,8 hPa 0,0 l/m 0,0 km/h (0 Bft) N 0 0 min 0,000 mm 0 W/m 5,8 C 7,5 C 0,0 km/h (0 Bft) 100 %
07.10.2016 22:30 7,5 C 7,5 C 7,5 C 89 % 1018,8 hPa 0,0 l/m 0,0 km/h (0 Bft) N 0 0 min 0,000 mm 0 W/m 5,8 C 7,5 C 0,0 km/h (0 Bft) 90 %
07.10.2016 22:40 7,5 C 7,5 C 7,5 C 90 % 1018,8 hPa 0,0 l/m 0,0 km/h (0 Bft) N 0 0 min 0,000 mm 0 W/m 6,0 C 7,5 C 0,0 km/h (0 Bft) 100 %
07.10.2016 22:50 7,6 C 7,5 C 7,6 C 90 % 1018,8 hPa 0,0 l/m 0,0 km/h (0 Bft) N 0 0 min 0,000 mm 0 W/m 6,1 C 7,6 C 0,0 km/h (0 Bft) 100 %
07.10.2016 23:00 7,6 C 7,6 C 7,6 C 90 % 1018,9 hPa 0,0 l/m 0,0 km/h (0 Bft) N 0 0 min 0,000 mm 0 W/m 6,1 C 7,6 C 0,0 km/h (0 Bft) 100 %
07.10.2016 23:10 7,6 C 7,6 C 7,6 C 90 % 1019,0 hPa 0,0 l/m 0,0 km/h (0 Bft) N 0 0 min 0,000 mm 0 W/m 6,1 C 7,6 C 0,0 km/h (0 Bft) 100 %
07.10.2016 23:20 7,7 C 7,6 C 7,7 C 90 % 1019,0 hPa 0,0 l/m 0,0 km/h (0 Bft) N 0 0 min 0,000 mm 0 W/m 6,2 C 7,7 C 0,0 km/h (0 Bft) 100 %
07.10.2016 23:30 7,7 C 7,7 C 7,7 C 90 % 1019,0 hPa 0,0 l/m 0,0 km/h (0 Bft) N 0 0 min 0,000 mm 0 W/m 6,2 C 7,7 C 0,0 km/h (0 Bft) 100 %
07.10.2016 23:40 7,7 C 7,6 C 7,7 C 90 % 1019,0 hPa 0,0 l/m 0,0 km/h (0 Bft) N 0 0 min 0,000 mm 0 W/m 6,2 C 7,7 C 0,0 km/h (0 Bft) 100 %
07.10.2016 23:50 7,7 C 7,7 C 7,7 C 90 % 1018,9 hPa 0,0 l/m 0,0 km/h (0 Bft) N 0 0 min 0,000 mm 0 W/m 6,2 C 7,7 C 0,0 km/h (0 Bft) 100 %
_ Min-Zeit 07:50 07:50 07:40 15:40 03:40 - 00:00 - - - - - 07:30 07:30 00:00 02:50
Minimum _ 7,0 C 7,0 C 7,1 C 73 % 1016,8 hPa - 0,0 km/h (0 Bft) - - - - - 5,7 C 7,1 C 0,0 km/h (0 Bft) 88 %
_ Max-Zeit 15:30 15:40 15:30 00:00 23:10 00:00 19:30 - - 09:10 11:00 13:20 10:50 15:30 15:40 00:10
Maximum _ 12,7 C 12,6 C 12,7 C 91 % 1019,0 hPa 0,0 l/m 3,6 km/h
SO (1 Bft)
- - 10 min 0,076 mm 480 W/m 9,3 C 12,7 C 11,3 km/h
W-NW (2 Bft)
100 %
Durchschnitt _ 9,3 C 9,3 C 9,4 C 87 % 1017,7 hPa #0,0 l/m 0,2 km/h (0 Bft) SO - #3:20 h #0,584 mm 135 W/m 7,3 C 9,3 C 1,6 km/h (1 Bft) 98 %
PRIVATE WETTERSTATION BILLIGHEIM-ALLFELD - www.neckar-odenwald-wetter.de - Holger Sonntag